This is the latest recevied weather packets stored in our database for station/object OE9GTV. If no packets are shown the sender has not sent any weather packets the latest 10 day(s).
| Time | Temp. | Humidity | Pressure | Rain* | Wind** | Luminosity | Snow |
|---|---|---|---|---|---|---|---|
| 1777198874 | 18.89° C | 44% | 1018.1 hPa | 0 mm | - | 0 W/m² | - |
| 1777195273 | 17.78° C | 48% | 1018.5 hPa | 0 mm | - | 0 W/m² | - |
| 1777191673 | 15.56° C | 56% | 1018.7 hPa | 0 mm | - | 0 W/m² | - |
| 1777191073 | 15.56° C | 59% | 1018.8 hPa | 0 mm | - | 0 W/m² | - |
| 1777190472 | 15° C | 60% | 1018.8 hPa | 0 mm | - | 0 W/m² | - |
| 1777189873 | 14.44° C | 61% | 1018.8 hPa | 0 mm | - | 0 W/m² | - |
| 1777189272 | 13.89° C | 59% | 1018.9 hPa | 0 mm | - | 0 W/m² | - |
| 1777188672 | 13.33° C | 64% | 1018.8 hPa | 0 mm | - | 0 W/m² | - |
| 1777188072 | 12.22° C | 69% | 1019 hPa | 0 mm | - | 0 W/m² | - |
| 1777187472 | 9.44° C | 78% | 1019 hPa | 0 mm | - | 0 W/m² | - |
| 1777185072 | 7.78° C | 78% | 1019 hPa | 0 mm | - | 0 W/m² | - |
| 1777184472 | 7.22° C | 77% | 1019 hPa | 0 mm | - | 0 W/m² | - |
| 1777183872 | 7.22° C | 76% | 1019.1 hPa | 0 mm | - | 0 W/m² | - |
| 1777182072 | 7.22° C | 74% | 1019 hPa | 0 mm | - | 0 W/m² | - |
| 1777181471 | 7.22° C | 74% | 1019 hPa | 0 mm | - | 0 W/m² | - |
| 1777180871 | 7.22° C | 74% | 1018.9 hPa | 0 mm | - | 0 W/m² | - |
| 1777180271 | 7.22° C | 73% | 1018.7 hPa | 0 mm | - | 0 W/m² | - |
| 1777179671 | 7.22° C | 72% | 1018.6 hPa | 0 mm | - | 0 W/m² | - |
| 1777179071 | 7.22° C | 72% | 1018.6 hPa | 0 mm | - | 0 W/m² | - |
| 1777178472 | 7.78° C | 72% | 1018.5 hPa | 0 mm | - | 0 W/m² | - |
| 1777176671 | 7.78° C | 71% | 1018.3 hPa | 0 mm | - | 0 W/m² | - |
| 1777176071 | 8.33° C | 71% | 1018.1 hPa | 0 mm | - | 0 W/m² | - |
| 1777175471 | 8.33° C | 70% | 1018.2 hPa | 0 mm | - | 0 W/m² | - |
| 1777174871 | 8.33° C | 70% | 1018.1 hPa | 0 mm | - | 0 W/m² | - |
| 1777174271 | 8.33° C | 70% | 1018 hPa | 0 mm | - | 0 W/m² | - |
* Rain latest hour (hover to see other rain measurements)
** Current wind speed in m/s (hover to see current wind gust speed)